sensor_id;sensor_type;location;lat;lon;timestamp;pressure;altitude;pressure_sealevel;temperature;humidity
56992;BME280;42885;49.754;18.636;2023-05-07T00:00:59;98461.69;;;15.37;100.00
56992;BME280;42885;49.754;18.636;2023-05-07T00:03:30;98466.60;;;15.48;100.00
56992;BME280;42885;49.754;18.636;2023-05-07T00:06:02;98464.46;;;15.47;100.00
56992;BME280;42885;49.754;18.636;2023-05-07T00:08:33;98462.19;;;15.43;100.00
56992;BME280;42885;49.754;18.636;2023-05-07T00:11:03;98466.24;;;15.47;100.00
56992;BME280;42885;49.754;18.636;2023-05-07T00:13:34;98463.85;;;15.49;100.00
56992;BME280;42885;49.754;18.636;2023-05-07T00:16:05;98461.70;;;15.60;100.00
56992;BME280;42885;49.754;18.636;2023-05-07T00:18:36;98466.73;;;15.58;100.00
56992;BME280;42885;49.754;18.636;2023-05-07T00:21:07;98462.06;;;15.55;100.00
56992;BME280;42885;49.754;18.636;2023-05-07T00:23:38;98468.05;;;15.63;100.00
56992;BME280;42885;49.754;18.636;2023-05-07T00:26:09;98460.51;;;15.70;100.00
56992;BME280;42885;49.754;18.636;2023-05-07T00:28:40;98465.28;;;15.36;100.00
56992;BME280;42885;49.754;18.636;2023-05-07T00:31:11;98466.25;;;15.41;100.00
56992;BME280;42885;49.754;18.636;2023-05-07T00:33:41;98463.97;;;15.36;100.00
56992;BME280;42885;49.754;18.636;2023-05-07T00:36:12;98462.16;;;15.31;100.00
56992;BME280;42885;49.754;18.636;2023-05-07T00:38:43;98464.54;;;15.23;100.00
56992;BME280;42885;49.754;18.636;2023-05-07T00:41:14;98463.83;;;15.26;100.00
56992;BME280;42885;49.754;18.636;2023-05-07T00:43:45;98465.53;;;15.39;100.00
56992;BME280;42885;49.754;18.636;2023-05-07T00:46:16;98469.84;;;15.46;100.00
56992;BME280;42885;49.754;18.636;2023-05-07T00:48:47;98471.98;;;15.29;100.00
56992;BME280;42885;49.754;18.636;2023-05-07T00:51:18;98482.64;;;15.22;100.00
56992;BME280;42885;49.754;18.636;2023-05-07T00:53:50;98471.16;;;15.28;100.00
56992;BME280;42885;49.754;18.636;2023-05-07T00:56:22;98477.27;;;15.29;100.00
56992;BME280;42885;49.754;18.636;2023-05-07T00:58:53;98475.34;;;15.25;100.00
56992;BME280;42885;49.754;18.636;2023-05-07T01:01:24;98474.27;;;15.17;100.00
56992;BME280;42885;49.754;18.636;2023-05-07T01:03:56;98475.33;;;15.20;100.00
56992;BME280;42885;49.754;18.636;2023-05-07T01:06:27;98479.43;;;15.24;100.00
56992;BME280;42885;49.754;18.636;2023-05-07T01:09:01;98479.64;;;15.21;100.00
56992;BME280;42885;49.754;18.636;2023-05-07T01:11:33;98476.80;;;15.35;100.00
56992;BME280;42885;49.754;18.636;2023-05-07T01:14:04;98474.66;;;15.40;100.00
56992;BME280;42885;49.754;18.636;2023-05-07T01:16:36;98468.03;;;15.23;100.00
56992;BME280;42885;49.754;18.636;2023-05-07T01:19:08;98473.77;;;15.11;100.00
56992;BME280;42885;49.754;18.636;2023-05-07T01:21:40;98473.20;;;15.31;100.00
56992;BME280;42885;49.754;18.636;2023-05-07T01:24:12;98469.50;;;15.96;100.00
56992;BME280;42885;49.754;18.636;2023-05-07T01:26:44;98477.97;;;15.31;100.00
56992;BME280;42885;49.754;18.636;2023-05-07T01:29:16;98472.23;;;15.20;100.00
56992;BME280;42885;49.754;18.636;2023-05-07T01:31:48;98473.91;;;15.16;100.00
56992;BME280;42885;49.754;18.636;2023-05-07T01:34:21;98473.91;;;15.16;100.00
56992;BME280;42885;49.754;18.636;2023-05-07T01:36:54;98469.95;;;15.16;100.00
56992;BME280;42885;49.754;18.636;2023-05-07T01:39:28;98470.66;;;15.18;100.00
56992;BME280;42885;49.754;18.636;2023-05-07T01:41:59;98476.30;;;15.19;100.00
56992;BME280;42885;49.754;18.636;2023-05-07T01:44:31;98485.36;;;15.03;100.00
56992;BME280;42885;49.754;18.636;2023-05-07T01:47:02;98481.56;;;15.19;100.00
56992;BME280;42885;49.754;18.636;2023-05-07T01:49:33;98482.47;;;15.00;100.00
56992;BME280;42885;49.754;18.636;2023-05-07T01:52:04;98478.06;;;15.01;100.00
56992;BME280;42885;49.754;18.636;2023-05-07T01:54:37;98475.53;;;15.05;100.00
56992;BME280;42885;49.754;18.636;2023-05-07T01:57:08;98474.92;;;15.02;100.00
56992;BME280;42885;49.754;18.636;2023-05-07T01:59:39;98486.30;;;14.91;100.00
56992;BME280;42885;49.754;18.636;2023-05-07T02:02:11;98480.55;;;14.97;100.00
56992;BME280;42885;49.754;18.636;2023-05-07T02:04:43;98475.28;;;14.97;100.00
56992;BME280;42885;49.754;18.636;2023-05-07T02:07:14;98481.05;;;15.02;100.00
56992;BME280;42885;49.754;18.636;2023-05-07T02:09:45;98476.90;;;15.17;100.00
56992;BME280;42885;49.754;18.636;2023-05-07T02:12:16;98474.22;;;15.05;100.00
56992;BME280;42885;49.754;18.636;2023-05-07T02:14:47;98474.14;;;14.52;100.00
56992;BME280;42885;49.754;18.636;2023-05-07T02:17:18;98476.73;;;15.01;100.00
56992;BME280;42885;49.754;18.636;2023-05-07T02:19:48;98481.30;;;14.99;100.00
56992;BME280;42885;49.754;18.636;2023-05-07T02:22:20;98481.39;;;14.92;100.00
56992;BME280;42885;49.754;18.636;2023-05-07T02:24:50;98477.91;;;14.97;100.00
56992;BME280;42885;49.754;18.636;2023-05-07T02:27:21;98473.60;;;14.96;100.00
56992;BME280;42885;49.754;18.636;2023-05-07T02:29:52;98475.31;;;15.03;100.00
56992;BME280;42885;49.754;18.636;2023-05-07T02:32:23;98475.62;;;14.86;100.00
56992;BME280;42885;49.754;18.636;2023-05-07T02:34:54;98471.81;;;14.72;100.00
56992;BME280;42885;49.754;18.636;2023-05-07T02:37:25;98477.03;;;14.79;100.00
56992;BME280;42885;49.754;18.636;2023-05-07T02:39:56;98469.42;;;14.69;100.00
56992;BME280;42885;49.754;18.636;2023-05-07T02:42:27;98478.13;;;14.82;100.00
56992;BME280;42885;49.754;18.636;2023-05-07T02:44:57;98472.20;;;14.73;100.00
56992;BME280;42885;49.754;18.636;2023-05-07T02:47:28;98477.56;;;14.66;100.00
56992;BME280;42885;49.754;18.636;2023-05-07T02:50:01;98479.36;;;14.71;100.00
56992;BME280;42885;49.754;18.636;2023-05-07T02:52:32;98473.19;;;14.53;100.00
56992;BME280;42885;49.754;18.636;2023-05-07T02:55:03;98477.14;;;14.53;100.00
56992;BME280;42885;49.754;18.636;2023-05-07T02:57:34;98484.23;;;14.58;100.00
56992;BME280;42885;49.754;18.636;2023-05-07T03:00:13;98479.85;;;14.70;100.00
56992;BME280;42885;49.754;18.636;2023-05-07T03:02:45;98481.58;;;14.77;100.00
56992;BME280;42885;49.754;18.636;2023-05-07T03:05:16;98480.81;;;14.45;100.00
56992;BME280;42885;49.754;18.636;2023-05-07T03:07:47;98474.11;;;14.41;100.00
56992;BME280;42885;49.754;18.636;2023-05-07T03:10:18;98478.71;;;14.56;100.00
56992;BME280;42885;49.754;18.636;2023-05-07T03:12:49;98482.05;;;14.52;100.00
56992;BME280;42885;49.754;18.636;2023-05-07T03:15:21;98484.12;;;14.36;100.00
56992;BME280;42885;49.754;18.636;2023-05-07T03:17:51;98487.89;;;14.44;100.00
56992;BME280;42885;49.754;18.636;2023-05-07T03:20:22;98484.44;;;14.55;100.00
56992;BME280;42885;49.754;18.636;2023-05-07T03:22:53;98486.00;;;14.52;100.00
56992;BME280;42885;49.754;18.636;2023-05-07T03:25:24;98491.30;;;14.34;100.00
56992;BME280;42885;49.754;18.636;2023-05-07T03:27:55;98493.46;;;14.40;100.00
56992;BME280;42885;49.754;18.636;2023-05-07T03:30:28;98499.24;;;14.45;100.00
56992;BME280;42885;49.754;18.636;2023-05-07T03:32:59;98502.29;;;14.33;100.00
56992;BME280;42885;49.754;18.636;2023-05-07T03:35:30;98500.22;;;14.25;100.00
56992;BME280;42885;49.754;18.636;2023-05-07T03:38:02;98505.70;;;14.41;100.00
56992;BME280;42885;49.754;18.636;2023-05-07T03:40:33;98506.47;;;14.54;100.00
56992;BME280;42885;49.754;18.636;2023-05-07T03:43:04;98510.91;;;15.14;100.00
56992;BME280;42885;49.754;18.636;2023-05-07T03:45:37;98508.32;;;14.22;100.00
56992;BME280;42885;49.754;18.636;2023-05-07T03:48:09;98508.61;;;14.49;100.00
56992;BME280;42885;49.754;18.636;2023-05-07T03:50:41;98517.77;;;14.19;100.00
56992;BME280;42885;49.754;18.636;2023-05-07T03:53:12;98512.54;;;14.06;100.00
56992;BME280;42885;49.754;18.636;2023-05-07T03:55:43;98511.09;;;13.89;100.00
56992;BME280;42885;49.754;18.636;2023-05-07T03:58:14;98519.91;;;14.01;100.00
56992;BME280;42885;49.754;18.636;2023-05-07T04:00:45;98517.70;;;14.08;100.00
56992;BME280;42885;49.754;18.636;2023-05-07T04:03:18;98518.58;;;14.33;100.00
56992;BME280;42885;49.754;18.636;2023-05-07T04:05:48;98521.13;;;14.21;100.00
56992;BME280;42885;49.754;18.636;2023-05-07T04:08:19;98525.36;;;14.29;100.00
56992;BME280;42885;49.754;18.636;2023-05-07T04:10:56;98531.42;;;14.06;100.00
56992;BME280;42885;49.754;18.636;2023-05-07T04:13:29;98537.17;;;14.05;100.00
56992;BME280;42885;49.754;18.636;2023-05-07T04:16:02;98536.26;;;14.12;100.00
56992;BME280;42885;49.754;18.636;2023-05-07T04:18:34;98534.81;;;14.08;100.00
56992;BME280;42885;49.754;18.636;2023-05-07T04:21:05;98541.77;;;13.96;100.00
56992;BME280;42885;49.754;18.636;2023-05-07T04:23:38;98548.40;;;14.20;100.00
56992;BME280;42885;49.754;18.636;2023-05-07T04:26:10;98545.47;;;14.12;100.00
56992;BME280;42885;49.754;18.636;2023-05-07T04:28:43;98556.72;;;14.14;100.00
56992;BME280;42885;49.754;18.636;2023-05-07T04:31:14;98553.77;;;14.18;100.00
56992;BME280;42885;49.754;18.636;2023-05-07T04:33:46;98560.02;;;14.23;100.00
56992;BME280;42885;49.754;18.636;2023-05-07T04:36:17;98559.16;;;14.17;100.00
56992;BME280;42885;49.754;18.636;2023-05-07T04:38:50;98561.52;;;14.14;100.00
56992;BME280;42885;49.754;18.636;2023-05-07T04:41:21;98565.41;;;14.22;100.00
56992;BME280;42885;49.754;18.636;2023-05-07T04:43:52;98567.09;;;14.23;100.00
56992;BME280;42885;49.754;18.636;2023-05-07T04:46:24;98571.62;;;14.21;100.00
56992;BME280;42885;49.754;18.636;2023-05-07T04:48:56;98568.47;;;14.15;100.00
56992;BME280;42885;49.754;18.636;2023-05-07T04:51:27;98572.81;;;14.22;100.00
56992;BME280;42885;49.754;18.636;2023-05-07T04:53:58;98579.84;;;14.16;100.00
56992;BME280;42885;49.754;18.636;2023-05-07T04:56:30;98579.75;;;14.23;100.00
56992;BME280;42885;49.754;18.636;2023-05-07T04:59:01;98583.20;;;14.18;100.00
56992;BME280;42885;49.754;18.636;2023-05-07T05:01:33;98590.67;;;14.24;100.00
56992;BME280;42885;49.754;18.636;2023-05-07T05:04:04;98586.62;;;14.13;100.00
56992;BME280;42885;49.754;18.636;2023-05-07T05:06:35;98589.36;;;14.24;100.00
56992;BME280;42885;49.754;18.636;2023-05-07T05:09:06;98588.47;;;14.18;100.00
56992;BME280;42885;49.754;18.636;2023-05-07T05:11:37;98584.88;;;14.19;100.00
56992;BME280;42885;49.754;18.636;2023-05-07T05:14:09;98598.91;;;14.38;100.00
56992;BME280;42885;49.754;18.636;2023-05-07T05:16:40;98592.66;;;14.34;100.00
56992;BME280;42885;49.754;18.636;2023-05-07T05:19:10;98595.78;;;14.39;100.00
56992;BME280;42885;49.754;18.636;2023-05-07T05:21:42;98597.72;;;14.42;100.00
56992;BME280;42885;49.754;18.636;2023-05-07T05:24:13;98595.12;;;14.29;100.00
56992;BME280;42885;49.754;18.636;2023-05-07T05:26:44;98598.41;;;14.39;100.00
56992;BME280;42885;49.754;18.636;2023-05-07T05:29:15;98600.33;;;14.37;100.00
56992;BME280;42885;49.754;18.636;2023-05-07T05:31:46;98599.59;;;14.53;100.00
56992;BME280;42885;49.754;18.636;2023-05-07T05:34:17;98601.87;;;14.52;100.00
56992;BME280;42885;49.754;18.636;2023-05-07T05:36:49;98604.57;;;14.45;100.00
56992;BME280;42885;49.754;18.636;2023-05-07T05:39:20;98603.74;;;14.44;100.00
56992;BME280;42885;49.754;18.636;2023-05-07T05:41:52;98606.11;;;14.42;100.00
56992;BME280;42885;49.754;18.636;2023-05-07T05:44:23;98612.83;;;14.27;100.00
56992;BME280;42885;49.754;18.636;2023-05-07T05:46:54;98610.27;;;14.39;100.00
56992;BME280;42885;49.754;18.636;2023-05-07T05:49:27;98612.80;;;14.40;100.00
56992;BME280;42885;49.754;18.636;2023-05-07T05:51:58;98607.99;;;14.40;100.00
56992;BME280;42885;49.754;18.636;2023-05-07T05:54:29;98613.98;;;14.55;100.00
56992;BME280;42885;49.754;18.636;2023-05-07T05:57:00;98616.38;;;14.58;100.00
56992;BME280;42885;49.754;18.636;2023-05-07T05:59:32;98617.86;;;14.30;100.00
56992;BME280;42885;49.754;18.636;2023-05-07T06:02:03;98617.02;;;14.43;100.00
56992;BME280;42885;49.754;18.636;2023-05-07T06:04:34;98612.50;;;14.51;100.00
56992;BME280;42885;49.754;18.636;2023-05-07T06:09:35;98615.16;;;14.19;100.00
56992;BME280;42885;49.754;18.636;2023-05-07T06:12:25;98616.89;;;14.13;100.00
56992;BME280;42885;49.754;18.636;2023-05-07T06:15:15;98615.63;;;14.06;100.00
56992;BME280;42885;49.754;18.636;2023-05-07T06:18:05;98628.58;;;14.22;100.00
56992;BME280;42885;49.754;18.636;2023-05-07T06:20:54;98622.36;;;14.23;100.00
56992;BME280;42885;49.754;18.636;2023-05-07T06:23:45;98625.09;;;14.21;100.00
56992;BME280;42885;49.754;18.636;2023-05-07T06:26:34;98624.83;;;14.18;100.00
56992;BME280;42885;49.754;18.636;2023-05-07T06:29:23;98627.14;;;14.23;100.00
56992;BME280;42885;49.754;18.636;2023-05-07T06:32:14;98627.67;;;14.28;100.00
56992;BME280;42885;49.754;18.636;2023-05-07T06:35:06;98627.80;;;14.45;100.00
56992;BME280;42885;49.754;18.636;2023-05-07T06:37:56;98628.83;;;14.37;100.00
56992;BME280;42885;49.754;18.636;2023-05-07T06:40:49;98628.14;;;14.41;100.00
56992;BME280;42885;49.754;18.636;2023-05-07T06:43:38;98630.64;;;14.42;100.00
56992;BME280;42885;49.754;18.636;2023-05-07T06:46:45;98627.44;;;14.31;100.00
56992;BME280;42885;49.754;18.636;2023-05-07T06:49:34;98631.05;;;14.17;100.00
56992;BME280;42885;49.754;18.636;2023-05-07T06:52:23;98636.52;;;14.27;100.00
56992;BME280;42885;49.754;18.636;2023-05-07T06:55:13;98639.98;;;14.41;100.00
56992;BME280;42885;49.754;18.636;2023-05-07T06:58:03;98639.41;;;14.30;100.00
56992;BME280;42885;49.754;18.636;2023-05-07T07:00:53;98647.23;;;14.50;100.00
56992;BME280;42885;49.754;18.636;2023-05-07T07:03:41;98646.56;;;14.41;100.00
56992;BME280;42885;49.754;18.636;2023-05-07T07:06:31;98652.82;;;14.45;100.00
56992;BME280;42885;49.754;18.636;2023-05-07T07:09:21;98656.24;;;14.40;100.00
56992;BME280;42885;49.754;18.636;2023-05-07T07:12:10;98666.20;;;14.29;100.00
56992;BME280;42885;49.754;18.636;2023-05-07T07:15:00;98661.91;;;14.47;100.00
56992;BME280;42885;49.754;18.636;2023-05-07T07:17:50;98668.48;;;14.02;100.00
56992;BME280;42885;49.754;18.636;2023-05-07T07:20:39;98667.31;;;14.07;100.00
56992;BME280;42885;49.754;18.636;2023-05-07T07:23:28;98663.67;;;13.89;100.00
56992;BME280;42885;49.754;18.636;2023-05-07T07:26:18;98670.26;;;14.15;100.00
56992;BME280;42885;49.754;18.636;2023-05-07T07:29:08;98673.97;;;14.12;100.00
56992;BME280;42885;49.754;18.636;2023-05-07T07:31:57;98683.17;;;14.25;100.00
56992;BME280;42885;49.754;18.636;2023-05-07T07:34:46;98680.20;;;14.43;100.00
56992;BME280;42885;49.754;18.636;2023-05-07T07:37:35;98677.19;;;14.55;100.00
56992;BME280;42885;49.754;18.636;2023-05-07T07:40:25;98681.33;;;14.52;100.00
56992;BME280;42885;49.754;18.636;2023-05-07T07:43:15;98683.37;;;14.67;100.00
56992;BME280;42885;49.754;18.636;2023-05-07T07:46:05;98681.64;;;14.15;100.00
56992;BME280;42885;49.754;18.636;2023-05-07T07:48:54;98685.13;;;14.29;100.00
56992;BME280;42885;49.754;18.636;2023-05-07T07:51:45;98687.27;;;14.29;100.00
56992;BME280;42885;49.754;18.636;2023-05-07T07:54:33;98686.27;;;14.56;100.00
56992;BME280;42885;49.754;18.636;2023-05-07T07:57:23;98683.02;;;14.66;100.00
56992;BME280;42885;49.754;18.636;2023-05-07T08:00:13;98684.40;;;14.58;100.00
56992;BME280;42885;49.754;18.636;2023-05-07T08:03:09;98687.23;;;14.55;100.00
56992;BME280;42885;49.754;18.636;2023-05-07T08:06:00;98698.37;;;14.40;100.00
56992;BME280;42885;49.754;18.636;2023-05-07T08:08:49;98699.91;;;14.37;100.00
56992;BME280;42885;49.754;18.636;2023-05-07T08:11:39;98705.00;;;13.94;100.00
56992;BME280;42885;49.754;18.636;2023-05-07T08:14:28;98714.28;;;13.80;100.00
56992;BME280;42885;49.754;18.636;2023-05-07T08:17:18;98715.94;;;13.47;100.00
56992;BME280;42885;49.754;18.636;2023-05-07T08:20:07;98721.97;;;13.70;100.00
56992;BME280;42885;49.754;18.636;2023-05-07T08:22:57;98725.42;;;13.50;100.00
56992;BME280;42885;49.754;18.636;2023-05-07T08:25:47;98718.75;;;13.44;100.00
56992;BME280;42885;49.754;18.636;2023-05-07T08:28:38;98718.54;;;13.55;100.00
56992;BME280;42885;49.754;18.636;2023-05-07T08:31:29;98722.42;;;13.49;100.00
56992;BME280;42885;49.754;18.636;2023-05-07T08:34:18;98725.53;;;13.41;100.00
56992;BME280;42885;49.754;18.636;2023-05-07T08:37:07;98731.42;;;13.17;100.00
56992;BME280;42885;49.754;18.636;2023-05-07T08:39:58;98735.84;;;13.44;100.00
56992;BME280;42885;49.754;18.636;2023-05-07T08:42:49;98741.92;;;13.52;100.00
56992;BME280;42885;49.754;18.636;2023-05-07T08:45:40;98748.33;;;13.75;100.00
56992;BME280;42885;49.754;18.636;2023-05-07T08:48:33;98752.58;;;13.36;100.00
56992;BME280;42885;49.754;18.636;2023-05-07T08:51:26;98750.70;;;13.31;100.00
56992;BME280;42885;49.754;18.636;2023-05-07T08:54:17;98753.23;;;13.47;100.00
56992;BME280;42885;49.754;18.636;2023-05-07T08:57:08;98754.92;;;13.33;100.00
56992;BME280;42885;49.754;18.636;2023-05-07T08:59:58;98756.95;;;13.57;100.00
56992;BME280;42885;49.754;18.636;2023-05-07T09:02:47;98767.98;;;13.35;100.00
56992;BME280;42885;49.754;18.636;2023-05-07T09:05:36;98761.92;;;13.20;100.00
56992;BME280;42885;49.754;18.636;2023-05-07T09:08:27;98768.15;;;13.04;100.00
56992;BME280;42885;49.754;18.636;2023-05-07T09:11:24;98768.75;;;13.22;100.00
56992;BME280;42885;49.754;18.636;2023-05-07T09:14:15;98775.38;;;13.35;100.00
56992;BME280;42885;49.754;18.636;2023-05-07T09:17:05;98779.12;;;12.97;100.00
56992;BME280;42885;49.754;18.636;2023-05-07T09:19:54;98782.25;;;13.31;100.00
56992;BME280;42885;49.754;18.636;2023-05-07T09:22:44;98784.00;;;13.03;100.00
56992;BME280;42885;49.754;18.636;2023-05-07T09:25:35;98782.81;;;13.36;100.00
56992;BME280;42885;49.754;18.636;2023-05-07T09:28:26;98792.30;;;13.46;100.00
56992;BME280;42885;49.754;18.636;2023-05-07T09:31:16;98794.64;;;13.36;100.00
56992;BME280;42885;49.754;18.636;2023-05-07T09:34:06;98796.35;;;13.15;100.00
56992;BME280;42885;49.754;18.636;2023-05-07T09:36:56;98797.95;;;13.18;100.00
56992;BME280;42885;49.754;18.636;2023-05-07T09:39:48;98802.19;;;13.13;100.00
56992;BME280;42885;49.754;18.636;2023-05-07T09:42:39;98802.75;;;13.18;100.00
56992;BME280;42885;49.754;18.636;2023-05-07T09:45:29;98805.95;;;13.16;100.00
56992;BME280;42885;49.754;18.636;2023-05-07T09:48:19;98800.19;;;13.31;100.00
56992;BME280;42885;49.754;18.636;2023-05-07T09:51:37;98804.58;;;13.38;100.00
56992;BME280;42885;49.754;18.636;2023-05-07T09:54:20;98801.59;;;13.30;100.00
56992;BME280;42885;49.754;18.636;2023-05-07T09:57:11;98807.92;;;13.20;100.00
56992;BME280;42885;49.754;18.636;2023-05-07T10:00:03;98811.13;;;13.03;100.00
56992;BME280;42885;49.754;18.636;2023-05-07T10:02:56;98810.05;;;13.28;100.00
56992;BME280;42885;49.754;18.636;2023-05-07T10:05:47;98814.56;;;13.33;100.00
56992;BME280;42885;49.754;18.636;2023-05-07T10:08:39;98818.00;;;13.41;100.00
56992;BME280;42885;49.754;18.636;2023-05-07T10:11:29;98818.58;;;13.53;100.00
56992;BME280;42885;49.754;18.636;2023-05-07T10:14:22;98820.55;;;13.35;100.00
56992;BME280;42885;49.754;18.636;2023-05-07T10:17:12;98820.66;;;13.19;100.00
56992;BME280;42885;49.754;18.636;2023-05-07T10:20:03;98823.58;;;13.07;100.00
56992;BME280;42885;49.754;18.636;2023-05-07T10:22:55;98832.23;;;12.87;100.00
56992;BME280;42885;49.754;18.636;2023-05-07T10:25:47;98830.70;;;13.34;100.00
56992;BME280;42885;49.754;18.636;2023-05-07T10:28:41;98826.77;;;13.19;100.00
56992;BME280;42885;49.754;18.636;2023-05-07T10:31:50;98829.39;;;13.34;100.00
56992;BME280;42885;49.754;18.636;2023-05-07T10:34:44;98834.53;;;13.50;100.00
56992;BME280;42885;49.754;18.636;2023-05-07T10:37:34;98836.70;;;13.29;100.00
56992;BME280;42885;49.754;18.636;2023-05-07T10:40:23;98843.66;;;13.15;100.00
56992;BME280;42885;49.754;18.636;2023-05-07T10:43:14;98838.02;;;13.36;100.00
56992;BME280;42885;49.754;18.636;2023-05-07T10:46:09;98835.69;;;13.46;100.00
56992;BME280;42885;49.754;18.636;2023-05-07T10:52:17;98843.94;;;13.54;100.00
56992;BME280;42885;49.754;18.636;2023-05-07T10:55:19;98843.92;;;13.40;100.00
56992;BME280;42885;49.754;18.636;2023-05-07T10:58:22;98843.84;;;13.27;100.00
56992;BME280;42885;49.754;18.636;2023-05-07T11:01:14;98843.84;;;13.27;100.00
56992;BME280;42885;49.754;18.636;2023-05-07T11:04:14;98839.87;;;13.56;100.00
56992;BME280;42885;49.754;18.636;2023-05-07T11:10:05;98844.70;;;13.76;100.00
56992;BME280;42885;49.754;18.636;2023-05-07T11:12:56;98850.80;;;13.49;100.00
56992;BME280;42885;49.754;18.636;2023-05-07T11:15:48;98849.28;;;13.53;100.00
56992;BME280;42885;49.754;18.636;2023-05-07T11:18:53;98848.70;;;13.55;100.00
56992;BME280;42885;49.754;18.636;2023-05-07T11:21:43;98846.80;;;13.64;100.00
56992;BME280;42885;49.754;18.636;2023-05-07T11:24:43;98852.25;;;13.68;100.00
56992;BME280;42885;49.754;18.636;2023-05-07T11:27:34;98856.58;;;13.62;100.00
56992;BME280;42885;49.754;18.636;2023-05-07T11:30:24;98861.38;;;13.41;100.00
56992;BME280;42885;49.754;18.636;2023-05-07T11:33:16;98854.32;;;13.63;100.00
56992;BME280;42885;49.754;18.636;2023-05-07T11:36:08;98861.55;;;13.67;100.00
56992;BME280;42885;49.754;18.636;2023-05-07T11:38:59;98863.70;;;13.74;100.00
56992;BME280;42885;49.754;18.636;2023-05-07T11:41:48;98865.19;;;13.71;100.00
56992;BME280;42885;49.754;18.636;2023-05-07T11:44:43;98867.59;;;13.54;100.00
56992;BME280;42885;49.754;18.636;2023-05-07T11:47:34;98862.22;;;13.56;100.00
56992;BME280;42885;49.754;18.636;2023-05-07T11:50:24;98866.73;;;13.61;100.00
56992;BME280;42885;49.754;18.636;2023-05-07T11:53:13;98865.63;;;13.58;100.00
56992;BME280;42885;49.754;18.636;2023-05-07T11:56:09;98870.59;;;13.26;100.00
56992;BME280;42885;49.754;18.636;2023-05-07T11:58:59;98868.25;;;13.58;100.00
56992;BME280;42885;49.754;18.636;2023-05-07T12:01:49;98873.20;;;13.70;100.00
56992;BME280;42885;49.754;18.636;2023-05-07T12:04:38;98873.59;;;13.56;100.00
56992;BME280;42885;49.754;18.636;2023-05-07T12:07:27;98880.08;;;13.21;100.00
56992;BME280;42885;49.754;18.636;2023-05-07T12:10:16;98877.90;;;13.35;100.00
56992;BME280;42885;49.754;18.636;2023-05-07T12:13:15;98884.40;;;13.59;100.00
56992;BME280;42885;49.754;18.636;2023-05-07T12:16:05;98883.97;;;13.72;100.00
56992;BME280;42885;49.754;18.636;2023-05-07T12:18:56;98891.15;;;13.56;100.00
56992;BME280;42885;49.754;18.636;2023-05-07T12:21:46;98888.91;;;13.20;100.00
56992;BME280;42885;49.754;18.636;2023-05-07T12:24:56;98889.66;;;13.59;100.00
56992;BME280;42885;49.754;18.636;2023-05-07T12:27:40;98887.08;;;13.79;100.00
56992;BME280;42885;49.754;18.636;2023-05-07T12:30:30;98884.43;;;13.86;99.93
56992;BME280;42885;49.754;18.636;2023-05-07T12:33:25;98889.75;;;13.50;100.00
56992;BME280;42885;49.754;18.636;2023-05-07T12:36:15;98891.99;;;13.27;100.00
56992;BME280;42885;49.754;18.636;2023-05-07T12:39:05;98895.07;;;13.70;100.00
56992;BME280;42885;49.754;18.636;2023-05-07T12:41:57;98895.20;;;13.54;100.00
56992;BME280;42885;49.754;18.636;2023-05-07T12:44:47;98896.05;;;13.26;100.00
56992;BME280;42885;49.754;18.636;2023-05-07T12:47:36;98898.09;;;12.99;100.00
56992;BME280;42885;49.754;18.636;2023-05-07T12:50:25;98894.23;;;12.83;100.00
56992;BME280;42885;49.754;18.636;2023-05-07T12:53:14;98893.77;;;12.76;100.00
56992;BME280;42885;49.754;18.636;2023-05-07T12:56:05;98899.14;;;12.96;100.00
56992;BME280;42885;49.754;18.636;2023-05-07T12:58:57;98897.43;;;12.80;100.00
56992;BME280;42885;49.754;18.636;2023-05-07T13:01:47;98903.91;;;12.97;100.00
56992;BME280;42885;49.754;18.636;2023-05-07T13:04:36;98898.30;;;13.03;100.00
56992;BME280;42885;49.754;18.636;2023-05-07T13:07:26;98900.27;;;13.21;100.00
56992;BME280;42885;49.754;18.636;2023-05-07T13:10:15;98904.20;;;12.99;100.00
56992;BME280;42885;49.754;18.636;2023-05-07T13:13:04;98898.38;;;12.79;100.00
56992;BME280;42885;49.754;18.636;2023-05-07T13:15:53;98900.44;;;13.11;100.00
56992;BME280;42885;49.754;18.636;2023-05-07T13:18:42;98906.92;;;13.05;100.00
56992;BME280;42885;49.754;18.636;2023-05-07T13:21:33;98905.61;;;13.05;100.00
56992;BME280;42885;49.754;18.636;2023-05-07T13:24:23;98901.30;;;13.04;100.00
56992;BME280;42885;49.754;18.636;2023-05-07T13:27:12;98900.81;;;12.90;100.00
56992;BME280;42885;49.754;18.636;2023-05-07T13:30:04;98901.75;;;12.89;100.00
56992;BME280;42885;49.754;18.636;2023-05-07T13:32:55;98905.03;;;13.07;100.00
56992;BME280;42885;49.754;18.636;2023-05-07T13:35:45;98910.11;;;13.03;100.00
56992;BME280;42885;49.754;18.636;2023-05-07T13:38:34;98904.28;;;12.83;100.00
56992;BME280;42885;49.754;18.636;2023-05-07T13:41:23;98903.15;;;12.87;100.00
56992;BME280;42885;49.754;18.636;2023-05-07T13:44:12;98900.47;;;12.51;100.00
56992;BME280;42885;49.754;18.636;2023-05-07T13:47:01;98905.17;;;12.60;100.00
56992;BME280;42885;49.754;18.636;2023-05-07T13:49:51;98904.37;;;12.82;100.00
56992;BME280;42885;49.754;18.636;2023-05-07T13:52:44;98905.06;;;13.00;100.00
56992;BME280;42885;49.754;18.636;2023-05-07T13:55:37;98899.78;;;12.85;100.00
56992;BME280;42885;49.754;18.636;2023-05-07T13:58:27;98904.95;;;12.42;100.00
56992;BME280;42885;49.754;18.636;2023-05-07T14:01:17;98907.88;;;12.59;100.00
56992;BME280;42885;49.754;18.636;2023-05-07T14:04:06;98902.31;;;12.42;100.00